Time;durP1;ratioP1;P1;durP2;ratioP2;P2;SDS_P1;SDS_P2;PMS_P1;PMS_P2;Temp;Humidity;BMP_temperature;BMP_pressure;BME280_temperature;BME280_humidity;BME280_pressure;Samples;Min_cycle;Max_cycle;Signal;HPM_P1;HPM_P2
2021/07/22 00:00:24;;;;;;;13.90;10.27;;;18.40;99.90;;;;;;5056633;28;20489;-50
2021/07/22 00:02:50;;;;;;;13.77;10.52;;;18.30;99.90;;;;;;5065248;28;20369;-48
2021/07/22 00:05:17;;;;;;;14.40;10.73;;;18.30;99.90;;;;;;5057019;28;20045;-48
2021/07/22 00:07:45;;;;;;;15.30;10.30;;;18.30;99.90;;;;;;5063030;28;20021;-47
2021/07/22 00:10:12;;;;;;;14.60;10.60;;;18.20;99.90;;;;;;5058386;28;20398;-50
2021/07/22 00:12:37;;;;;;;14.90;11.07;;;18.20;99.90;;;;;;5057826;28;20045;-49
2021/07/22 00:15:05;;;;;;;15.52;10.90;;;18.10;99.90;;;;;;5063609;28;20052;-47
2021/07/22 00:17:31;;;;;;;14.00;10.77;;;18.00;99.90;;;;;;5056947;28;20387;-49
2021/07/22 00:19:56;;;;;;;15.48;10.55;;;17.90;99.90;;;;;;5061542;28;20029;-48
2021/07/22 00:22:22;;;;;;;15.38;10.98;;;17.90;99.90;;;;;;5061530;28;20035;-49
2021/07/22 00:24:47;;;;;;;14.15;10.40;;;17.80;99.90;;;;;;5059020;28;20497;-48
2021/07/22 00:27:16;;;;;;;15.77;11.52;;;17.80;99.90;;;;;;5060591;28;20032;-50
2021/07/22 00:29:43;;;;;;;14.40;11.00;;;17.80;99.90;;;;;;5060983;28;20031;-48
2021/07/22 00:32:10;;;;;;;15.85;11.05;;;17.80;99.90;;;;;;5057904;28;20016;-48
2021/07/22 00:34:36;;;;;;;16.27;11.05;;;17.80;99.90;;;;;;5061803;28;20398;-48
2021/07/22 00:37:01;;;;;;;15.85;11.25;;;17.70;99.90;;;;;;5058845;28;20021;-48
2021/07/22 00:39:27;;;;;;;14.40;10.13;;;17.70;99.90;;;;;;5060504;28;20031;-49
2021/07/22 00:41:52;;;;;;;17.33;12.02;;;17.60;99.90;;;;;;5058803;28;20036;-48
2021/07/22 00:44:18;;;;;;;15.32;11.15;;;17.60;99.90;;;;;;5060030;28;20056;-48
2021/07/22 00:46:43;;;;;;;17.52;12.85;;;17.60;99.90;;;;;;5059477;28;20505;-47
2021/07/22 00:49:10;;;;;;;14.88;11.20;;;17.60;99.90;;;;;;5055109;28;20035;-48
2021/07/22 00:51:36;;;;;;;16.25;11.38;;;17.60;99.90;;;;;;5067752;28;20070;-47
2021/07/22 00:54:04;;;;;;;18.90;12.30;;;17.60;99.90;;;;;;5058125;28;20017;-49
2021/07/22 00:56:29;;;;;;;17.70;12.23;;;17.60;99.90;;;;;;5060322;28;20115;-49
2021/07/22 00:58:55;;;;;;;16.58;11.73;;;17.70;99.90;;;;;;5058432;28;20536;-50
2021/07/22 01:01:20;;;;;;;17.00;11.98;;;17.70;99.90;;;;;;5060770;28;20064;-50
2021/07/22 01:03:46;;;;;;;15.93;11.90;;;17.70;99.90;;;;;;5058523;28;20029;-48
2021/07/22 01:06:11;;;;;;;19.63;12.52;;;17.70;99.90;;;;;;5058050;28;20033;-48
2021/07/22 01:08:36;;;;;;;16.60;11.60;;;17.70;99.90;;;;;;5061678;28;20025;-47
2021/07/22 01:11:02;;;;;;;15.73;11.43;;;17.70;99.90;;;;;;5056756;28;20021;-48
2021/07/22 01:13:27;;;;;;;15.25;11.57;;;17.60;99.90;;;;;;5059512;28;20024;-47
2021/07/22 01:15:53;;;;;;;18.27;12.57;;;17.60;99.90;;;;;;5057271;28;20271;-48
2021/07/22 01:18:18;;;;;;;15.43;11.63;;;17.50;99.90;;;;;;5059506;28;20037;-47
2021/07/22 01:20:44;;;;;;;16.50;10.85;;;17.50;99.90;;;;;;5063112;28;20481;-48
2021/07/22 01:23:09;;;;;;;13.57;11.18;;;17.50;99.90;;;;;;5058530;28;20391;-47
2021/07/22 01:25:35;;;;;;;13.93;10.88;;;17.40;99.90;;;;;;5055044;28;20107;-47
2021/07/22 01:28:00;;;;;;;15.82;11.73;;;17.40;99.90;;;;;;5039859;28;20034;-48
2021/07/22 01:30:26;;;;;;;17.33;11.63;;;17.40;99.90;;;;;;5028765;28;20455;-47
2021/07/22 01:32:54;;;;;;;15.63;11.63;;;17.40;99.90;;;;;;5033589;28;20096;-47
2021/07/22 01:35:20;;;;;;;16.27;12.50;;;17.40;99.90;;;;;;5033154;28;20261;-48
2021/07/22 01:37:47;;;;;;;16.58;12.23;;;17.40;99.90;;;;;;5030249;28;20029;-48
2021/07/22 01:40:13;;;;;;;13.70;11.18;;;17.30;99.90;;;;;;5030636;28;20397;-46
2021/07/22 01:42:39;;;;;;;15.45;10.88;;;17.30;99.90;;;;;;5037455;28;20053;-46
2021/07/22 01:45:06;;;;;;;16.25;11.25;;;17.30;99.90;;;;;;5046484;28;20061;-47
2021/07/22 01:47:34;;;;;;;19.63;11.95;;;17.20;99.90;;;;;;5044754;28;20112;-48
2021/07/22 01:49:59;;;;;;;16.13;12.20;;;17.20;99.90;;;;;;5049599;28;20107;-48
2021/07/22 01:52:25;;;;;;;17.23;12.80;;;17.20;99.90;;;;;;5054730;28;20119;-47
2021/07/22 01:54:50;;;;;;;17.52;13.10;;;17.30;99.90;;;;;;5031155;28;20026;-48
2021/07/22 01:57:15;;;;;;;15.93;12.07;;;17.30;99.90;;;;;;5052329;28;20478;-46
2021/07/22 01:59:41;;;;;;;14.35;10.95;;;17.20;99.90;;;;;;5046950;28;20127;-46
2021/07/22 02:02:08;;;;;;;14.50;11.07;;;17.10;99.90;;;;;;5053213;28;20037;-47
2021/07/22 02:04:35;;;;;;;17.10;12.13;;;17.10;99.90;;;;;;5045741;28;20383;-46
2021/07/22 02:07:00;;;;;;;17.40;11.27;;;17.00;99.90;;;;;;5054524;28;20032;-47
2021/07/22 02:09:26;;;;;;;17.50;11.90;;;17.00;99.90;;;;;;5055704;28;20040;-47
2021/07/22 02:11:53;;;;;;;13.82;11.13;;;17.00;99.90;;;;;;5037642;28;20057;-47
2021/07/22 02:14:19;;;;;;;16.73;11.45;;;17.00;99.90;;;;;;5050885;28;20397;-48
2021/07/22 02:16:45;;;;;;;17.42;12.40;;;17.00;99.90;;;;;;5051263;28;20028;-47
2021/07/22 02:19:10;;;;;;;13.75;10.90;;;17.00;99.90;;;;;;5066891;28;20033;-47
2021/07/22 02:21:40;;;;;;;16.98;12.35;;;17.00;99.90;;;;;;5060218;28;20104;-47
2021/07/22 02:24:10;;;;;;;15.48;11.73;;;17.00;99.90;;;;;;5060959;28;20482;-47
2021/07/22 02:26:36;;;;;;;18.45;13.15;;;17.00;99.90;;;;;;5061826;28;20060;-46
2021/07/22 02:29:03;;;;;;;18.27;12.65;;;17.10;99.90;;;;;;5066595;28;20107;-47
2021/07/22 02:31:29;;;;;;;16.02;11.93;;;17.10;99.90;;;;;;5059554;28;20013;-46
2021/07/22 02:33:54;;;;;;;18.00;12.93;;;17.20;99.90;;;;;;5065460;28;20409;-47
2021/07/22 02:36:20;;;;;;;15.88;12.18;;;17.20;99.90;;;;;;5042166;28;20052;-47
2021/07/22 02:38:45;;;;;;;18.83;12.85;;;17.20;99.90;;;;;;5034699;28;20087;-48
2021/07/22 02:41:11;;;;;;;17.25;12.80;;;17.30;99.90;;;;;;5042605;28;20063;-48
2021/07/22 02:43:36;;;;;;;19.20;12.40;;;17.30;99.90;;;;;;5036802;28;20025;-47
2021/07/22 02:46:06;;;;;;;16.75;11.68;;;17.30;99.90;;;;;;5041916;28;20131;-47
2021/07/22 02:48:32;;;;;;;15.10;11.73;;;17.40;99.90;;;;;;5044731;28;20018;-46
2021/07/22 02:51:00;;;;;;;17.75;12.52;;;17.40;99.90;;;;;;5042737;28;20378;-47
2021/07/22 02:53:27;;;;;;;17.15;12.90;;;17.40;99.90;;;;;;5038322;28;20115;-49
2021/07/22 02:56:00;;;;;;;16.25;12.77;;;17.40;99.90;;;;;;5034580;28;20493;-48
2021/07/22 02:58:26;;;;;;;16.45;12.38;;;17.50;99.90;;;;;;5042324;28;21002;-49
2021/07/22 03:00:52;;;;;;;19.38;13.82;;;17.50;99.90;;;;;;5043099;28;20045;-47
2021/07/22 03:03:18;;;;;;;17.33;13.30;;;17.50;99.90;;;;;;5059222;28;20051;-47
2021/07/22 03:05:43;;;;;;;20.10;14.13;;;17.50;99.90;;;;;;5042268;28;20507;-47
2021/07/22 03:08:09;;;;;;;16.83;13.05;;;17.50;99.90;;;;;;5047250;28;20509;-48
2021/07/22 03:10:34;;;;;;;19.13;13.10;;;17.50;99.90;;;;;;5047699;28;20013;-46
2021/07/22 03:13:00;;;;;;;21.40;14.20;;;17.50;99.90;;;;;;5034920;28;20052;-47
2021/07/22 03:15:26;;;;;;;18.15;13.23;;;17.50;99.90;;;;;;5054369;28;20060;-48
2021/07/22 03:17:51;;;;;;;20.15;13.07;;;17.50;99.90;;;;;;5055116;28;20108;-50
2021/07/22 03:20:17;;;;;;;20.00;14.20;;;17.50;99.90;;;;;;5055611;28;20116;-47
2021/07/22 03:22:43;;;;;;;19.50;13.18;;;17.50;99.90;;;;;;5060529;28;20031;-49
2021/07/22 03:25:09;;;;;;;19.90;14.40;;;17.50;99.90;;;;;;5060859;28;20518;-47
2021/07/22 03:27:34;;;;;;;20.23;14.00;;;17.50;99.90;;;;;;5062613;28;20095;-47
2021/07/22 03:30:00;;;;;;;19.83;14.38;;;17.50;99.90;;;;;;5060863;28;20029;-49
2021/07/22 03:32:26;;;;;;;27.15;16.52;;;17.50;99.90;;;;;;5061995;28;20033;-47
2021/07/22 03:34:51;;;;;;;24.52;15.40;;;17.50;99.90;;;;;;5057916;28;20036;-47
2021/07/22 03:37:17;;;;;;;19.02;14.45;;;17.50;99.90;;;;;;5065320;28;20040;-48
2021/07/22 03:39:43;;;;;;;21.95;15.50;;;17.50;99.90;;;;;;5061472;28;20386;-49
2021/07/22 03:42:09;;;;;;;26.48;15.38;;;17.50;99.90;;;;;;5060412;28;20037;-49
2021/07/22 03:44:35;;;;;;;20.73;15.65;;;17.50;99.90;;;;;;5059821;28;20150;-46
2021/07/22 03:47:01;;;;;;;22.63;16.42;;;17.40;99.90;;;;;;5060413;28;20032;-46
2021/07/22 03:49:26;;;;;;;25.38;16.30;;;17.40;99.90;;;;;;5054410;28;20147;-47
2021/07/22 03:51:55;;;;;;;24.35;15.88;;;17.40;99.90;;;;;;5060337;28;20153;-46
2021/07/22 03:54:21;;;;;;;25.90;16.65;;;17.40;99.90;;;;;;5064297;28;20024;-47
2021/07/22 03:56:47;;;;;;;24.08;15.90;;;17.40;99.90;;;;;;5059819;28;20039;-46
2021/07/22 03:59:16;;;;;;;20.70;15.18;;;17.40;99.90;;;;;;5061160;28;20016;-47
2021/07/22 04:01:42;;;;;;;25.10;16.75;;;17.30;99.90;;;;;;5060036;28;20442;-48
2021/07/22 04:04:09;;;;;;;22.50;15.52;;;17.30;99.90;;;;;;5059540;28;20029;-48
2021/07/22 04:06:35;;;;;;;20.38;14.02;;;17.30;99.90;;;;;;5061304;28;20024;-48
2021/07/22 04:09:01;;;;;;;21.40;15.20;;;17.30;99.90;;;;;;5043488;28;20038;-47
2021/07/22 04:11:26;;;;;;;24.95;16.02;;;17.30;99.90;;;;;;5035043;28;20036;-47
2021/07/22 04:13:52;;;;;;;19.95;15.48;;;17.30;99.90;;;;;;5037407;28;20021;-47
2021/07/22 04:16:17;;;;;;;19.50;14.27;;;17.30;99.90;;;;;;5041779;28;20049;-47
2021/07/22 04:18:43;;;;;;;22.67;15.05;;;17.30;99.90;;;;;;5041743;28;20052;-47
2021/07/22 04:21:08;;;;;;;23.67;16.38;;;17.30;99.90;;;;;;5040619;28;20021;-47
2021/07/22 04:23:34;;;;;;;25.25;17.20;;;17.30;99.90;;;;;;5037965;28;20040;-47
2021/07/22 04:25:59;;;;;;;21.73;14.60;;;17.40;99.90;;;;;;5043747;28;20039;-47
2021/07/22 04:28:25;;;;;;;26.42;17.55;;;17.40;99.90;;;;;;5026320;28;20506;-47
2021/07/22 04:30:50;;;;;;;24.33;15.88;;;17.40;99.90;;;;;;5041265;28;20426;-47
2021/07/22 04:33:16;;;;;;;22.20;15.50;;;17.40;99.90;;;;;;5041598;28;20040;-47
2021/07/22 04:35:41;;;;;;;23.20;15.25;;;17.40;99.90;;;;;;5040709;28;20021;-48
2021/07/22 04:38:07;;;;;;;20.88;14.95;;;17.40;99.90;;;;;;5041557;28;20108;-47
2021/07/22 04:40:32;;;;;;;20.75;13.90;;;17.40;99.90;;;;;;5035017;28;20053;-47
2021/07/22 04:43:01;;;;;;;27.65;17.30;;;17.40;99.90;;;;;;5029332;28;20495;-47
2021/07/22 04:45:26;;;;;;;21.77;14.85;;;17.40;99.90;;;;;;5028526;28;20018;-47
2021/07/22 04:47:52;;;;;;;20.10;14.52;;;17.50;99.90;;;;;;5041034;28;20082;-47
2021/07/22 04:50:17;;;;;;;19.65;14.40;;;17.50;99.90;;;;;;5045750;28;20067;-46
2021/07/22 04:52:43;;;;;;;21.10;14.77;;;17.40;99.90;;;;;;5039741;28;20090;-47
2021/07/22 04:55:08;;;;;;;22.25;16.27;;;17.40;99.90;;;;;;5034499;28;20048;-46
2021/07/22 04:57:34;;;;;;;21.98;14.82;;;17.40;99.90;;;;;;5043357;28;20480;-47
2021/07/22 05:00:00;;;;;;;22.33;14.77;;;17.40;99.90;;;;;;5052003;28;20028;-47
2021/07/22 05:02:25;;;;;;;22.08;15.10;;;17.40;99.90;;;;;;5048065;28;20032;-47
2021/07/22 05:04:51;;;;;;;21.17;15.05;;;17.40;99.90;;;;;;5053590;28;20155;-47
2021/07/22 05:07:16;;;;;;;24.08;16.20;;;17.40;99.90;;;;;;5046889;28;20024;-49
2021/07/22 05:09:42;;;;;;;21.70;15.23;;;17.40;99.90;;;;;;5055097;28;20024;-47
2021/07/22 05:12:08;;;;;;;22.90;15.60;;;17.50;99.90;;;;;;5046246;28;20527;-49
2021/07/22 05:14:33;;;;;;;23.88;16.05;;;17.50;99.90;;;;;;5036047;28;20029;-49
2021/07/22 05:17:00;;;;;;;21.92;14.63;;;17.60;99.90;;;;;;5049082;28;20493;-50
2021/07/22 05:19:25;;;;;;;26.48;16.05;;;17.70;99.90;;;;;;5056186;28;20033;-47
2021/07/22 05:21:51;;;;;;;23.55;17.20;;;17.70;99.90;;;;;;5057063;28;20072;-48
2021/07/22 05:24:17;;;;;;;20.92;14.88;;;17.70;99.90;;;;;;5047985;28;20020;-48
2021/07/22 05:26:42;;;;;;;23.05;16.85;;;17.80;99.90;;;;;;5055808;28;20104;-50
2021/07/22 05:29:08;;;;;;;22.40;15.32;;;17.90;99.90;;;;;;5063419;28;20024;-47
2021/07/22 05:31:34;;;;;;;23.08;15.90;;;17.90;99.90;;;;;;5056300;28;20517;-47
2021/07/22 05:34:00;;;;;;;22.70;15.55;;;17.90;99.90;;;;;;5062301;28;20347;-46
2021/07/22 05:36:26;;;;;;;21.77;14.55;;;18.00;99.90;;;;;;5055820;28;20256;-47
2021/07/22 05:38:51;;;;;;;24.63;16.05;;;18.00;99.90;;;;;;5050067;28;20335;-47
2021/07/22 05:41:17;;;;;;;17.85;13.75;;;18.00;99.90;;;;;;5046396;28;20029;-47
2021/07/22 05:43:43;;;;;;;22.63;15.57;;;18.10;99.90;;;;;;5037358;28;20025;-46
2021/07/22 05:46:08;;;;;;;19.35;15.63;;;18.20;99.90;;;;;;5034022;28;20021;-47
2021/07/22 05:48:34;;;;;;;22.00;15.18;;;18.30;99.90;;;;;;5032489;28;20108;-48
2021/07/22 05:51:03;;;;;;;21.02;14.90;;;18.40;99.90;;;;;;5051611;28;20421;-47
2021/07/22 05:53:28;;;;;;;23.48;15.93;;;18.50;99.90;;;;;;5049761;28;20024;-48
2021/07/22 05:55:58;;;;;;;21.20;15.02;;;18.50;99.90;;;;;;5045762;28;20092;-48
2021/07/22 05:58:24;;;;;;;21.08;15.10;;;18.60;99.90;;;;;;5059077;28;20025;-46
2021/07/22 06:00:49;;;;;;;21.85;14.45;;;18.60;99.90;;;;;;5046041;28;20104;-47
2021/07/22 06:03:14;;;;;;;19.45;14.50;;;18.70;99.90;;;;;;5061660;28;20284;-47
2021/07/22 06:05:40;;;;;;;26.88;14.77;;;18.70;99.90;;;;;;5047435;28;20083;-47
2021/07/22 06:08:06;;;;;;;20.85;15.73;;;18.70;99.90;;;;;;5034126;28;20021;-48
2021/07/22 06:10:31;;;;;;;20.08;15.00;;;18.80;99.90;;;;;;5057748;28;20482;-47
2021/07/22 06:12:58;;;;;;;19.80;14.55;;;18.80;99.90;;;;;;5046663;28;20017;-48
2021/07/22 06:15:24;;;;;;;25.33;14.95;;;18.80;99.90;;;;;;5052963;28;20024;-49
2021/07/22 06:17:49;;;;;;;21.88;14.35;;;18.80;99.90;;;;;;5057741;28;20059;-47
2021/07/22 06:20:16;;;;;;;18.02;13.20;;;18.90;99.90;;;;;;5059324;28;20082;-47
2021/07/22 06:22:44;;;;;;;19.17;13.60;;;18.90;99.90;;;;;;5054734;28;20092;-47
2021/07/22 06:25:11;;;;;;;19.88;13.55;;;18.90;99.90;;;;;;5061795;28;20036;-48
2021/07/22 06:27:36;;;;;;;18.70;13.90;;;18.80;99.90;;;;;;5056654;28;20024;-49
2021/07/22 06:30:03;;;;;;;20.23;14.27;;;18.80;99.90;;;;;;5062691;28;20041;-49
2021/07/22 06:32:29;;;;;;;17.95;14.07;;;18.70;99.90;;;;;;5061615;28;20070;-47
2021/07/22 06:34:56;;;;;;;18.02;12.95;;;18.70;99.90;;;;;;5058245;28;20564;-47
2021/07/22 06:37:21;;;;;;;17.17;13.00;;;18.70;99.90;;;;;;5059252;28;20031;-50
2021/07/22 06:39:46;;;;;;;21.15;14.02;;;18.70;99.90;;;;;;5062187;28;20037;-48
2021/07/22 06:42:12;;;;;;;21.42;13.55;;;18.70;99.90;;;;;;5057103;28;20078;-49
2021/07/22 06:44:38;;;;;;;18.98;13.25;;;18.80;99.90;;;;;;5055321;28;20500;-50
2021/07/22 06:47:03;;;;;;;22.63;14.73;;;18.80;99.90;;;;;;5044406;28;20441;-47
2021/07/22 06:49:29;;;;;;;21.83;15.77;;;18.70;99.90;;;;;;5058784;28;20105;-49
2021/07/22 06:51:54;;;;;;;20.35;13.43;;;18.70;99.90;;;;;;5046170;28;20091;-48
2021/07/22 06:54:21;;;;;;;18.17;13.70;;;18.70;99.90;;;;;;5032437;28;20036;-49
2021/07/22 06:56:46;;;;;;;17.02;12.75;;;18.70;99.90;;;;;;5035023;28;20025;-49
2021/07/22 06:59:12;;;;;;;21.52;14.13;;;18.70;99.90;;;;;;5056534;28;20390;-47
2021/07/22 07:01:38;;;;;;;22.30;13.80;;;18.70;99.90;;;;;;5044450;28;20029;-48
2021/07/22 07:04:04;;;;;;;24.73;14.50;;;18.70;99.90;;;;;;5058927;28;20422;-50
2021/07/22 07:06:33;;;;;;;22.08;14.05;;;18.70;99.90;;;;;;5056945;28;20683;-48
2021/07/22 07:08:58;;;;;;;19.45;12.88;;;18.70;99.90;;;;;;5058346;28;20028;-49
2021/07/22 07:11:24;;;;;;;17.42;13.15;;;18.70;99.90;;;;;;5053925;28;20032;-48
2021/07/22 07:13:49;;;;;;;25.35;13.88;;;18.80;99.90;;;;;;5033306;28;20144;-48
2021/07/22 07:16:15;;;;;;;16.10;12.45;;;18.90;99.90;;;;;;5037510;28;20504;-47
2021/07/22 07:18:41;;;;;;;21.85;13.88;;;18.90;99.90;;;;;;5060474;28;20060;-47
2021/07/22 07:21:06;;;;;;;18.33;13.90;;;19.00;99.90;;;;;;5059778;28;20363;-50
2021/07/22 07:23:32;;;;;;;21.83;14.10;;;19.10;99.90;;;;;;5051714;28;20048;-47
2021/07/22 07:25:59;;;;;;;17.83;12.90;;;19.10;99.90;;;;;;5065810;28;20036;-48
2021/07/22 07:28:25;;;;;;;19.48;13.18;;;19.20;99.90;;;;;;5051853;28;20128;-48
2021/07/22 07:30:51;;;;;;;18.92;13.40;;;19.20;99.90;;;;;;5058409;28;20016;-49
2021/07/22 07:33:17;;;;;;;21.92;13.68;;;19.30;99.90;;;;;;5058798;28;20027;-47
2021/07/22 07:35:42;;;;;;;19.85;13.40;;;19.40;99.90;;;;;;5060461;28;20506;-51
2021/07/22 07:38:08;;;;;;;16.77;12.32;;;19.30;99.90;;;;;;5051264;28;20047;-48
2021/07/22 07:40:34;;;;;;;15.88;11.93;;;19.50;99.90;;;;;;5052284;28;20096;-48
2021/07/22 07:42:59;;;;;;;23.38;13.35;;;19.50;99.90;;;;;;5049247;28;20201;-48
2021/07/22 07:45:25;;;;;;;20.13;12.38;;;19.50;99.90;;;;;;5049079;28;20552;-47
2021/07/22 07:47:51;;;;;;;17.33;12.45;;;19.50;99.90;;;;;;5059716;28;20535;-48
2021/07/22 07:50:17;;;;;;;15.70;12.35;;;19.60;99.90;;;;;;5029863;28;20041;-47
2021/07/22 07:52:44;;;;;;;18.23;12.73;;;19.50;99.90;;;;;;5034476;28;20055;-47
2021/07/22 07:55:11;;;;;;;20.25;14.30;;;19.50;99.90;;;;;;5035238;28;20580;-47
2021/07/22 07:57:37;;;;;;;20.35;12.73;;;19.50;99.90;;;;;;5036409;28;20034;-47
2021/07/22 08:00:04;;;;;;;17.70;13.20;;;19.60;99.90;;;;;;5033298;28;20030;-47
2021/07/22 08:02:30;;;;;;;17.77;12.48;;;19.70;99.90;;;;;;5032698;28;20164;-47
2021/07/22 08:04:57;;;;;;;20.10;14.15;;;19.90;99.90;;;;;;5040419;28;20100;-49
2021/07/22 08:07:23;;;;;;;17.95;12.73;;;19.90;99.90;;;;;;5038963;28;20021;-47
2021/07/22 08:09:48;;;;;;;20.73;13.80;;;20.00;99.90;;;;;;5031097;28;20442;-47
2021/07/22 08:12:16;;;;;;;15.48;11.93;;;20.10;99.90;;;;;;5051068;28;20112;-47
2021/07/22 08:14:41;;;;;;;23.85;14.73;;;20.10;99.90;;;;;;5044721;28;20087;-49
2021/07/22 08:17:07;;;;;;;16.70;12.90;;;20.30;99.90;;;;;;5040233;28;20514;-47
2021/07/22 08:19:33;;;;;;;17.40;11.93;;;20.40;99.90;;;;;;5051931;28;20382;-47
2021/07/22 08:21:59;;;;;;;17.33;12.13;;;20.50;99.90;;;;;;5033969;28;20024;-49
2021/07/22 08:24:24;;;;;;;16.52;12.50;;;20.60;99.90;;;;;;5041240;28;20032;-48
2021/07/22 08:26:50;;;;;;;22.35;12.68;;;20.60;99.90;;;;;;5039706;28;20078;-47
2021/07/22 08:29:15;;;;;;;14.93;11.45;;;20.80;99.90;;;;;;5054308;28;20448;-47
2021/07/22 08:31:41;;;;;;;19.92;12.25;;;21.00;99.90;;;;;;5034068;28;20024;-48
2021/07/22 08:34:06;;;;;;;17.58;12.65;;;21.30;99.90;;;;;;5055114;28;20026;-48
2021/07/22 08:36:32;;;;;;;15.43;12.27;;;21.40;99.90;;;;;;5043653;28;20033;-49
2021/07/22 08:38:58;;;;;;;18.42;12.55;;;21.50;99.90;;;;;;5047194;28;20030;-47
2021/07/22 08:41:23;;;;;;;19.13;12.57;;;21.70;99.90;;;;;;5050694;28;20036;-48
2021/07/22 08:43:51;;;;;;;19.70;12.90;;;22.00;99.90;;;;;;5045607;28;20515;-49
2021/07/22 08:46:17;;;;;;;18.75;12.02;;;22.30;99.90;;;;;;5054474;28;20124;-49
2021/07/22 08:48:43;;;;;;;16.20;11.82;;;22.90;99.90;;;;;;5034617;28;20339;-48
2021/07/22 08:51:10;;;;;;;16.05;10.13;;;23.80;99.90;;;;;;5050826;28;20463;-48
2021/07/22 08:53:36;;;;;;;14.50;10.55;;;25.10;99.90;;;;;;5049931;28;20056;-49
2021/07/22 08:56:05;;;;;;;14.57;10.50;;;26.50;98.50;;;;;;5048762;28;20049;-47
2021/07/22 08:58:31;;;;;;;15.60;10.80;;;27.80;95.30;;;;;;5046164;28;20510;-50
2021/07/22 09:01:00;;;;;;;12.50;10.13;;;27.90;91.80;;;;;;5040133;28;20027;-48
2021/07/22 09:03:26;;;;;;;12.88;11.25;;;27.50;90.60;;;;;;5041213;28;20028;-48
2021/07/22 09:05:51;;;;;;;13.90;10.65;;;28.00;90.30;;;;;;5033333;28;20041;-50
2021/07/22 09:08:17;;;;;;;12.70;10.23;;;28.50;86.70;;;;;;5041432;28;20482;-51
2021/07/22 09:10:42;;;;;;;14.57;10.85;;;28.90;83.50;;;;;;5040475;28;20422;-49
2021/07/22 09:13:23;;;;;;;11.02;9.45;;;28.00;87.50;;;;;;5039391;28;20060;-47
2021/07/22 09:15:52;;;;;;;13.77;10.50;;;29.20;86.00;;;;;;5050711;28;20025;-47
2021/07/22 09:18:26;;;;;;;13.30;9.95;;;29.40;82.00;;;;;;5049216;28;20529;-46
2021/07/22 09:20:53;;;;;;;12.75;10.43;;;29.50;82.10;;;;;;5058491;28;20038;-49
2021/07/22 09:23:21;;;;;;;14.05;11.75;;;29.40;81.60;;;;;;5057183;28;20484;-46
2021/07/22 09:25:48;;;;;;;17.40;11.98;;;29.00;78.20;;;;;;5061575;28;20056;-48
2021/07/22 09:28:25;;;;;;;13.40;10.93;;;28.60;78.40;;;;;;5059939;28;20386;-47
2021/07/22 09:31:08;;;;;;;13.75;11.70;;;28.30;80.40;;;;;;5059850;28;20017;-48
2021/07/22 09:33:38;;;;;;;14.30;10.15;;;28.60;80.10;;;;;;5055526;28;20090;-49
2021/07/22 09:36:05;;;;;;;15.07;11.85;;;29.60;80.40;;;;;;5057784;28;20173;-49
2021/07/22 09:38:30;;;;;;;15.48;10.55;;;30.30;76.20;;;;;;5032591;28;20124;-48
2021/07/22 09:40:56;;;;;;;17.75;13.38;;;30.80;74.00;;;;;;5058177;28;20227;-49
2021/07/22 09:43:38;;;;;;;18.60;12.57;;;30.90;69.80;;;;;;5047979;28;20041;-50
2021/07/22 09:46:04;;;;;;;11.90;10.57;;;31.60;70.30;;;;;;5054286;28;20360;-50
2021/07/22 09:48:30;;;;;;;14.40;12.05;;;32.30;68.30;;;;;;5040996;28;20028;-47
2021/07/22 09:50:55;;;;;;;12.57;11.27;;;32.90;67.90;;;;;;5051243;28;20056;-50
2021/07/22 09:53:23;;;;;;;14.10;11.23;;;32.50;65.60;;;;;;5037960;28;20036;-49
2021/07/22 09:55:54;;;;;;;12.18;10.77;;;32.20;64.70;;;;;;5045588;28;20014;-47
2021/07/22 09:58:20;;;;;;;18.30;14.18;;;31.30;67.80;;;;;;5041588;28;20096;-49
2021/07/22 10:00:50;;;;;;;13.27;11.85;;;30.10;68.80;;;;;;5031702;28;20147;-47
2021/07/22 10:03:18;;;;;;;18.15;12.35;;;29.10;72.00;;;;;;5056124;28;20036;-47
2021/07/22 10:05:57;;;;;;;18.20;12.63;;;28.40;73.60;;;;;;5037155;28;20053;-49
2021/07/22 10:08:25;;;;;;;17.55;12.95;;;27.90;72.60;;;;;;5040831;28;20021;-47
2021/07/22 10:10:52;;;;;;;18.55;12.63;;;27.90;74.40;;;;;;5038211;28;20014;-46
2021/07/22 10:13:32;;;;;;;16.90;12.77;;;28.60;75.40;;;;;;5039948;28;20474;-47
2021/07/22 10:16:00;;;;;;;14.52;11.77;;;29.70;71.30;;;;;;5048821;28;20509;-47
2021/07/22 10:18:26;;;;;;;18.40;12.70;;;30.90;70.80;;;;;;5063212;28;20040;-48
2021/07/22 10:20:57;;;;;;;15.93;13.18;;;31.20;67.80;;;;;;5061375;28;20025;-48
2021/07/22 10:23:24;;;;;;;15.63;12.75;;;30.40;66.50;;;;;;5054490;28;20021;-48
2021/07/22 10:25:50;;;;;;;20.38;14.32;;;29.60;68.10;;;;;;5063586;28;20435;-48
2021/07/22 10:28:17;;;;;;;21.85;14.57;;;29.30;67.30;;;;;;5060504;28;20090;-46
2021/07/22 10:30:44;;;;;;;16.45;13.90;;;28.30;69.90;;;;;;5067952;28;20489;-47
2021/07/22 10:33:11;;;;;;;20.50;15.65;;;26.70;73.80;;;;;;5061129;28;20032;-46
2021/07/22 10:35:36;;;;;;;17.88;13.70;;;25.90;75.80;;;;;;5068287;28;20036;-49
2021/07/22 10:38:09;;;;;;;21.98;14.60;;;25.30;78.50;;;;;;5057770;28;20024;-46
2021/07/22 10:40:54;;;;;;;21.77;13.85;;;25.00;80.70;;;;;;5063546;28;20497;-47
2021/07/22 10:43:40;;;;;;;16.58;13.52;;;24.30;84.00;;;;;;5055261;28;20028;-47
2021/07/22 10:46:16;;;;;;;20.95;14.82;;;24.10;87.00;;;;;;5066558;28;20482;-48
2021/07/22 10:48:46;;;;;;;21.52;15.07;;;23.80;87.40;;;;;;5057938;28;20025;-47
2021/07/22 10:51:13;;;;;;;19.48;13.52;;;23.50;87.00;;;;;;5067127;28;20021;-48
2021/07/22 10:53:49;;;;;;;20.60;13.77;;;23.40;89.20;;;;;;5058850;28;20022;-48
2021/07/22 10:56:22;;;;;;;20.23;14.93;;;23.40;90.00;;;;;;5063215;28;20025;-47
2021/07/22 10:58:48;;;;;;;18.27;13.98;;;23.30;90.00;;;;;;5061329;28;20052;-46
2021/07/22 11:01:14;;;;;;;24.88;14.90;;;23.40;90.40;;;;;;5062061;28;20029;-49
2021/07/22 11:03:43;;;;;;;21.05;13.90;;;23.70;90.10;;;;;;5062133;28;20493;-50
2021/07/22 11:06:15;;;;;;;21.70;15.45;;;23.80;90.20;;;;;;5061225;28;20028;-47
2021/07/22 11:08:42;;;;;;;16.00;12.85;;;25.50;88.90;;;;;;5065992;28;20025;-49
2021/07/22 11:11:13;;;;;;;17.60;13.48;;;27.20;83.30;;;;;;5064216;28;20108;-50
2021/07/22 11:13:39;;;;;;;17.35;11.68;;;28.40;76.90;;;;;;5061567;28;20021;-49
2021/07/22 11:16:05;;;;;;;16.50;11.38;;;29.00;75.70;;;;;;5059949;28;20028;-49
2021/07/22 11:18:40;;;;;;;16.25;11.23;;;28.70;75.70;;;;;;5062192;28;20044;-47
2021/07/22 11:21:06;;;;;;;12.60;11.30;;;28.10;77.00;;;;;;5060108;28;20024;-49
2021/07/22 11:23:32;;;;;;;15.95;11.40;;;27.40;78.10;;;;;;5057403;28;20686;-47
2021/07/22 11:25:57;;;;;;;16.60;11.02;;;26.40;79.10;;;;;;5060372;28;20093;-50
2021/07/22 11:28:25;;;;;;;14.57;11.48;;;25.90;83.10;;;;;;5062176;28;20024;-50
2021/07/22 11:31:10;;;;;;;17.30;12.35;;;25.30;85.00;;;;;;5061905;28;20412;-47
2021/07/22 11:33:39;;;;;;;17.25;12.13;;;24.80;85.80;;;;;;5057489;28;20024;-47
2021/07/22 11:36:11;;;;;;;15.77;11.40;;;24.70;87.70;;;;;;5065492;28;20620;-48
2021/07/22 11:38:39;;;;;;;16.52;11.77;;;24.40;87.80;;;;;;5058188;28;20447;-48
2021/07/22 11:41:12;;;;;;;15.80;11.85;;;24.30;88.70;;;;;;5063223;28;20024;-48
2021/07/22 11:43:40;;;;;;;21.17;11.85;;;24.10;88.50;;;;;;5057434;28;20108;-48
2021/07/22 11:46:08;;;;;;;17.55;11.52;;;23.90;89.40;;;;;;5063881;28;20036;-49
2021/07/22 11:48:34;;;;;;;15.52;11.65;;;23.80;90.30;;;;;;5057888;28;20453;-48
2021/07/22 11:51:14;;;;;;;19.27;12.93;;;24.10;89.40;;;;;;5066178;28;20104;-48
2021/07/22 11:53:40;;;;;;;;;;;23.90;90.10;;;;;;5057105;28;20552;-49
2021/07/22 11:56:17;;;;;;;16.98;12.57;;;24.00;90.60;;;;;;5049761;28;19924;-47
2021/07/22 11:58:50;;;;;;;17.00;11.20;;;23.90;89.40;;;;;;5049139;28;20652;-48
2021/07/22 12:01:17;;;;;;;18.00;12.00;;;24.10;89.50;;;;;;5052547;28;20440;-48
2021/07/22 12:03:49;;;;;;;20.90;13.70;;;24.40;89.40;;;;;;5048227;28;20056;-48
2021/07/22 12:06:24;;;;;;;18.02;11.77;;;24.70;87.90;;;;;;5056549;28;20583;-47
2021/07/22 12:09:08;;;;;;;19.10;13.70;;;24.90;86.00;;;;;;5051250;28;20386;-48
2021/07/22 12:11:52;;;;;;;16.98;10.90;;;25.30;83.40;;;;;;5042145;28;20101;-48
2021/07/22 12:14:45;;;;;;;21.25;14.13;;;25.30;84.30;;;;;;5027208;28;20128;-48
2021/07/22 12:17:11;;;;;;;21.73;13.10;;;25.10;83.00;;;;;;5036112;28;20029;-48
2021/07/22 12:19:39;;;;;;;17.42;11.90;;;25.20;85.40;;;;;;5044057;28;20329;-51
2021/07/22 12:22:42;;;;;;;16.42;11.88;;;25.10;85.40;;;;;;5033483;28;20032;-47
2021/07/22 12:25:12;;;;;;;21.33;13.15;;;25.20;86.40;;;;;;5051851;28;20483;-49
2021/07/22 12:27:43;;;;;;;19.35;11.82;;;25.40;83.70;;;;;;5052162;28;20375;-47